createdAt,value
2023-02-11T00:04:53.352Z,30.17
2023-02-11T00:09:53.696Z,27.02
2023-02-11T00:14:54.367Z,31.27
2023-02-11T00:19:52.802Z,31.48
2023-02-11T00:24:50.937Z,35.40
2023-02-11T00:29:49.884Z,36.92
2023-02-11T00:34:52.688Z,29.50
2023-02-11T00:39:50.511Z,34.35
2023-02-11T00:44:52.108Z,28.55
2023-02-11T00:49:51.483Z,30.40
2023-02-11T00:54:54.378Z,31.27
2023-02-11T00:59:56.611Z,37.67
2023-02-11T01:04:55.190Z,28.47
2023-02-11T01:09:54.652Z,38.33
2023-02-11T01:14:56.906Z,29.60
2023-02-11T01:19:58.809Z,31.27
2023-02-11T01:24:57.717Z,27.80
2023-02-11T01:29:59.980Z,31.48
2023-02-11T01:35:01.054Z,35.88
2023-02-11T01:39:59.816Z,28.73
2023-02-11T01:45:04.450Z,32.15
2023-02-11T01:50:02.896Z,27.33
2023-02-11T01:55:24.545Z,39.42
2023-02-11T02:00:30.455Z,37.20
2023-02-11T02:05:46.984Z,29.70
2023-02-11T02:10:47.267Z,30.20
2023-02-11T02:16:03.871Z,32.40
2023-02-11T02:21:24.762Z,32.40
2023-02-11T02:26:38.907Z,29.73
2023-02-11T02:31:48.155Z,34.83
2023-02-11T02:37:17.866Z,32.13
2023-02-11T02:42:20.111Z,33.13
2023-02-11T02:47:20.663Z,35.27
2023-02-11T02:53:04.387Z,33.47
2023-02-11T02:58:26.009Z,29.23
2023-02-11T03:03:44.041Z,31.92
2023-02-11T03:08:53.902Z,24.98
2023-02-11T03:13:55.396Z,28.42
2023-02-11T03:18:59.801Z,25.52
2023-02-11T03:24:29.066Z,29.98
2023-02-11T03:30:06.671Z,28.55
2023-02-11T03:35:50.158Z,29.50
2023-02-11T03:46:00.215Z,29.10
2023-02-11T03:51:03.745Z,31.73
2023-02-11T03:56:15.000Z,31.40
2023-02-11T04:01:17.891Z,34.25
2023-02-11T04:06:19.156Z,34.90
2023-02-11T04:11:18.148Z,31.30
2023-02-11T04:16:20.620Z,28.08
2023-02-11T04:21:24.533Z,27.63
2023-02-11T04:26:22.946Z,24.60
2023-02-11T04:31:22.160Z,25.92
2023-02-11T04:36:23.922Z,27.83
2023-02-11T04:41:22.481Z,27.60
2023-02-11T04:46:22.517Z,28.52
2023-02-11T04:51:23.748Z,29.40
2023-02-11T04:56:25.053Z,29.92
2023-02-11T05:01:26.696Z,26.40
2023-02-11T05:06:27.519Z,25.33
2023-02-11T05:11:29.645Z,29.88
2023-02-11T05:16:30.034Z,29.33
2023-02-11T05:21:30.769Z,32.90
2023-02-11T05:26:31.222Z,31.25
2023-02-11T05:31:32.807Z,28.75
2023-02-11T05:36:33.832Z,32.28
2023-02-11T05:41:35.129Z,32.58
2023-02-11T05:46:36.457Z,30.73
2023-02-11T05:51:39.186Z,38.38
2023-02-11T05:56:37.810Z,29.23
2023-02-11T06:01:38.228Z,34.17
2023-02-11T06:06:39.269Z,32.40
2023-02-11T06:11:40.214Z,31.42
2023-02-11T06:16:39.572Z,37.15
2023-02-11T06:21:44.186Z,40.75
2023-02-11T06:26:41.826Z,34.08
2023-02-11T06:31:43.050Z,40.88
2023-02-11T06:36:44.577Z,34.67
2023-02-11T06:41:46.348Z,39.65
2023-02-11T06:46:44.662Z,37.05
2023-02-11T06:51:46.516Z,41.28
2023-02-11T06:56:47.487Z,47.13
2023-02-11T07:01:46.437Z,44.47
2023-02-11T07:06:49.473Z,34.92
2023-02-11T07:11:50.775Z,36.15
2023-02-11T07:16:53.372Z,28.77
2023-02-11T07:21:53.108Z,38.00
2023-02-11T07:26:51.353Z,36.10
2023-02-11T07:31:49.054Z,32.45
2023-02-11T07:36:50.551Z,40.83
2023-02-11T07:41:49.391Z,31.40
2023-02-11T07:46:49.836Z,35.08
2023-02-11T07:51:51.094Z,32.33
2023-02-11T07:56:51.157Z,28.45
2023-02-11T08:01:53.634Z,33.38
2023-02-11T08:06:58.972Z,31.20
2023-02-11T08:11:57.877Z,34.10
2023-02-11T08:16:55.297Z,31.63
2023-02-11T08:22:07.710Z,27.45
2023-02-11T08:27:07.110Z,27.08
2023-02-11T08:32:08.285Z,29.98
2023-02-11T08:37:05.699Z,25.98
2023-02-11T08:42:03.878Z,26.98
2023-02-11T08:47:04.698Z,24.67
2023-02-11T08:52:13.029Z,30.75
2023-02-11T08:57:14.058Z,28.45
2023-02-11T09:02:15.554Z,28.33
2023-02-11T09:07:16.089Z,29.75
2023-02-11T09:12:17.235Z,29.30
2023-02-11T09:17:17.895Z,35.00
2023-02-11T09:22:16.542Z,32.55
2023-02-11T09:27:21.133Z,28.38
2023-02-11T09:32:23.165Z,34.03
2023-02-11T09:37:24.634Z,34.83
2023-02-11T09:42:48.913Z,33.72
2023-02-11T09:47:55.037Z,31.15
2023-02-11T09:53:06.548Z,27.00
2023-02-11T09:58:31.042Z,28.48
2023-02-11T10:03:56.765Z,35.25
2023-02-11T10:09:07.497Z,29.42
2023-02-11T10:14:30.111Z,30.08
2023-02-11T10:20:09.471Z,26.98
2023-02-11T10:25:30.957Z,25.65
2023-02-11T10:30:35.603Z,29.83
2023-02-11T10:35:36.396Z,23.88
2023-02-11T10:40:39.563Z,25.20
2023-02-11T10:45:40.981Z,23.07
2023-02-11T10:50:39.442Z,26.75
2023-02-11T10:55:40.204Z,24.88
2023-02-11T11:00:43.136Z,25.17
2023-02-11T11:06:12.362Z,29.00
2023-02-11T11:11:15.431Z,23.27
2023-02-11T11:16:26.221Z,23.83
2023-02-11T11:21:36.586Z,19.90
2023-02-11T11:26:46.587Z,24.13
2023-02-11T11:32:01.550Z,25.02
2023-02-11T11:37:27.520Z,27.73
2023-02-11T11:42:28.374Z,22.95
2023-02-11T11:47:53.509Z,20.33
2023-02-11T11:53:05.061Z,23.30
2023-02-11T12:03:50.525Z,16.05
2023-02-11T12:15:07.254Z,17.70
2023-02-11T12:20:24.140Z,22.95
2023-02-11T12:25:50.336Z,15.77
2023-02-11T12:31:21.586Z,17.17
2023-02-11T12:36:46.778Z,17.05
2023-02-11T12:42:25.488Z,16.48
2023-02-11T12:47:36.436Z,20.02
2023-02-11T12:52:40.390Z,24.95
2023-02-11T12:57:44.431Z,19.90
2023-02-11T13:03:02.376Z,15.82
2023-02-11T13:08:23.801Z,18.17
2023-02-11T13:14:13.069Z,18.23
2023-02-11T13:19:18.021Z,14.77
2023-02-11T13:24:37.691Z,17.00
2023-02-11T13:30:34.876Z,20.35
2023-02-11T13:35:39.107Z,16.55
2023-02-11T13:40:40.659Z,20.75
2023-02-11T13:45:44.719Z,16.20
2023-02-11T13:50:52.106Z,18.65
2023-02-11T13:55:54.416Z,20.40
2023-02-11T14:01:05.310Z,15.05
2023-02-11T14:06:30.826Z,16.27
2023-02-11T14:11:42.117Z,16.63
2023-02-11T14:17:08.483Z,15.60
2023-02-11T14:22:18.899Z,17.52
2023-02-11T14:28:05.627Z,12.45
2023-02-11T14:33:22.904Z,19.88
2023-02-11T14:38:39.058Z,15.40
2023-02-11T14:44:03.234Z,16.27
2023-02-11T14:49:07.338Z,19.38
2023-02-11T14:54:16.857Z,14.45
2023-02-11T14:59:20.340Z,15.27
2023-02-11T15:04:40.737Z,14.43
2023-02-11T15:09:45.296Z,18.02
2023-02-11T15:14:54.285Z,14.07
2023-02-11T15:19:59.504Z,17.30
2023-02-11T15:25:05.867Z,16.88
2023-02-11T15:30:25.177Z,15.60
2023-02-11T15:35:30.475Z,15.10
2023-02-11T15:40:38.507Z,18.27
2023-02-11T15:45:59.441Z,15.45
2023-02-11T15:51:42.732Z,16.20
2023-02-11T15:57:01.713Z,19.00
2023-02-11T16:02:26.123Z,14.05
2023-02-11T16:08:03.579Z,17.67
2023-02-11T16:13:25.352Z,16.65
2023-02-11T16:18:39.802Z,20.20
2023-02-11T16:23:43.571Z,18.33
2023-02-11T16:28:44.150Z,18.02
2023-02-11T16:33:47.587Z,20.70
2023-02-11T16:38:46.924Z,19.00
2023-02-11T16:43:56.303Z,20.15
2023-02-11T16:49:11.646Z,22.25
2023-02-11T16:54:16.716Z,20.55
2023-02-11T16:59:17.143Z,24.08
2023-02-11T17:04:26.817Z,27.08
2023-02-11T17:09:30.240Z,30.42
2023-02-11T17:14:30.147Z,27.17
2023-02-11T17:19:28.420Z,26.80
2023-02-11T17:24:28.982Z,24.60
2023-02-11T17:29:31.105Z,24.35
2023-02-11T17:34:33.199Z,26.13
2023-02-11T17:39:33.640Z,21.73
2023-02-11T17:44:35.174Z,23.50
2023-02-11T17:49:33.998Z,23.52
2023-02-11T17:54:38.585Z,25.55
2023-02-11T17:59:44.845Z,30.95
2023-02-11T18:04:46.730Z,19.90
2023-02-11T18:09:44.262Z,27.83
2023-02-11T18:14:42.436Z,25.15
2023-02-11T18:19:40.853Z,34.08
2023-02-11T18:24:44.423Z,23.75
2023-02-11T18:29:44.284Z,23.73
2023-02-11T18:34:46.914Z,25.02
2023-02-11T18:39:48.456Z,25.50
2023-02-11T18:44:46.502Z,27.40
2023-02-11T18:49:49.078Z,24.08
2023-02-11T18:54:52.608Z,24.35
2023-02-11T18:59:54.081Z,26.17
2023-02-11T19:04:54.041Z,26.70
2023-02-11T19:10:04.317Z,29.80
2023-02-11T19:15:08.514Z,26.15
2023-02-11T19:20:09.522Z,26.52
2023-02-11T19:25:08.626Z,28.92
2023-02-11T19:30:10.882Z,28.15
2023-02-11T19:35:13.546Z,26.92
2023-02-11T19:40:20.425Z,26.93
2023-02-11T19:45:23.709Z,30.13
2023-02-11T19:50:25.436Z,29.27
2023-02-11T19:55:25.081Z,25.95
2023-02-11T20:00:25.833Z,31.38
2023-02-11T20:05:29.216Z,24.63
2023-02-11T20:10:34.591Z,23.85
2023-02-11T20:15:35.203Z,38.00
2023-02-11T20:20:34.034Z,30.88
2023-02-11T20:25:34.279Z,27.45
2023-02-11T20:30:36.235Z,27.52
2023-02-11T20:35:38.878Z,24.65
2023-02-11T20:40:40.664Z,29.43
2023-02-11T20:45:41.579Z,23.80
2023-02-11T20:50:45.970Z,24.63
2023-02-11T20:55:47.913Z,26.02
2023-02-11T21:00:45.955Z,24.65
2023-02-11T21:05:46.087Z,18.17
2023-02-11T21:10:44.076Z,21.90
2023-02-11T21:15:45.264Z,22.48
2023-02-11T21:20:46.700Z,19.00
2023-02-11T21:26:02.816Z,20.85
2023-02-11T21:31:06.098Z,21.23
2023-02-11T21:36:16.185Z,23.88
2023-02-11T21:41:22.742Z,20.25
2023-02-11T21:46:22.979Z,20.83
2023-02-11T21:51:36.056Z,19.13
2023-02-11T21:56:37.525Z,18.05
2023-02-11T22:01:41.228Z,24.77
2023-02-11T22:16:55.840Z,20.38
2023-02-11T22:21:59.368Z,27.13
2023-02-11T22:27:26.353Z,18.50
2023-02-11T22:32:27.666Z,19.00
2023-02-11T22:37:53.906Z,21.13
2023-02-11T22:42:54.733Z,19.23
2023-02-11T22:53:14.776Z,16.40
2023-02-11T22:58:18.987Z,18.95
2023-02-11T23:03:20.856Z,23.02
2023-02-11T23:08:23.378Z,18.45
2023-02-11T23:13:29.944Z,18.10
2023-02-11T23:18:32.983Z,19.17
2023-02-11T23:23:33.640Z,19.93
2023-02-11T23:28:36.234Z,25.13
2023-02-11T23:33:36.028Z,23.10
2023-02-11T23:38:35.742Z,23.15
2023-02-11T23:43:37.766Z,33.78
2023-02-11T23:48:40.666Z,26.92
2023-02-11T23:53:43.053Z,28.52
2023-02-11T23:58:44.537Z,27.98
